createdAt,value
2019-04-27T00:02:26.559Z,100562.00
2019-04-27T00:05:14.480Z,100558.00
2019-04-27T00:07:51.481Z,100559.00
2019-04-27T00:10:28.647Z,100559.00
2019-04-27T00:13:02.195Z,100551.00
2019-04-27T00:15:57.268Z,100546.00
2019-04-27T00:18:37.032Z,100548.00
2019-04-27T00:21:25.999Z,100552.00
2019-04-27T00:23:56.341Z,100551.00
2019-04-27T00:26:26.800Z,100550.00
2019-04-27T00:28:57.487Z,100543.00
2019-04-27T00:31:27.857Z,100537.00
2019-04-27T00:33:58.689Z,100530.00
2019-04-27T00:36:35.367Z,100546.00
2019-04-27T00:39:25.713Z,100537.00
2019-04-27T00:41:56.033Z,100536.00
2019-04-27T00:44:26.438Z,100542.00
2019-04-27T00:46:59.932Z,100538.00
2019-04-27T00:49:30.519Z,100529.00
2019-04-27T00:52:00.876Z,100538.00
2019-04-27T00:54:31.248Z,100537.00
2019-04-27T00:57:09.166Z,100527.00
2019-04-27T01:00:13.392Z,100527.00
2019-04-27T01:02:47.932Z,100523.00
2019-04-27T01:05:23.190Z,100524.00
2019-04-27T01:07:53.769Z,100527.00
2019-04-27T01:10:24.203Z,100512.00
2019-04-27T01:12:54.572Z,100514.00
2019-04-27T01:15:25.375Z,100515.00
2019-04-27T01:18:09.551Z,100499.00
2019-04-27T01:20:28.438Z,100490.00
2019-04-27T01:23:00.196Z,100491.00
2019-04-27T01:25:43.133Z,100482.00
2019-04-27T01:28:20.839Z,100476.00
2019-04-27T01:30:55.932Z,100474.00
2019-04-27T01:33:26.311Z,100478.00
2019-04-27T01:35:56.754Z,100478.00
2019-04-27T01:38:29.002Z,100466.00
2019-04-27T01:41:00.667Z,100465.00
2019-04-27T01:43:31.572Z,100462.00
2019-04-27T01:46:01.922Z,100464.00
2019-04-27T01:48:32.280Z,100455.00
2019-04-27T01:51:02.912Z,100459.00
2019-04-27T01:53:33.276Z,100455.00
2019-04-27T01:56:03.668Z,100458.00
2019-04-27T01:58:34.243Z,100451.00
2019-04-27T02:01:31.019Z,100452.00
2019-04-27T02:04:20.364Z,100444.00
2019-04-27T02:06:52.351Z,100448.00
2019-04-27T02:09:23.164Z,100449.00
2019-04-27T02:11:54.052Z,100450.00
2019-04-27T02:14:24.553Z,100453.00
2019-04-27T02:16:55.031Z,100448.00
2019-04-27T02:19:26.047Z,100450.00
2019-04-27T02:21:56.454Z,100448.00
2019-04-27T02:24:28.413Z,100447.00
2019-04-27T02:26:58.896Z,100442.00
2019-04-27T02:29:40.904Z,100443.00
2019-04-27T02:32:22.877Z,100448.00
2019-04-27T02:35:00.200Z,100438.00
2019-04-27T02:37:30.678Z,100439.00
2019-04-27T02:40:01.207Z,100437.00
2019-04-27T02:42:42.814Z,100439.00
2019-04-27T02:45:15.676Z,100441.00
2019-04-27T02:47:46.045Z,100432.00
2019-04-27T02:50:19.193Z,100434.00
2019-04-27T02:52:50.224Z,100438.00
2019-04-27T02:55:20.580Z,100429.00
2019-04-27T02:57:50.929Z,100431.00
2019-04-27T03:00:21.784Z,100432.00
2019-04-27T03:03:02.248Z,100435.00
2019-04-27T03:05:31.761Z,100423.00
2019-04-27T03:08:02.165Z,100431.00
2019-04-27T03:10:32.485Z,100417.00
2019-04-27T03:13:15.971Z,100428.00
2019-04-27T03:16:16.690Z,100429.00
2019-04-27T03:19:10.077Z,100416.00
2019-04-27T03:21:42.931Z,100410.00
2019-04-27T03:24:14.038Z,100411.00
2019-04-27T03:26:50.304Z,100416.00
2019-04-27T03:29:22.959Z,100411.00
2019-04-27T03:31:53.853Z,100396.00
2019-04-27T03:34:25.032Z,100390.00
2019-04-27T03:36:55.772Z,100399.00
2019-04-27T03:39:26.175Z,100394.00
2019-04-27T03:41:56.506Z,100400.00
2019-04-27T03:44:29.628Z,100395.00
2019-04-27T03:46:59.617Z,100398.00
2019-04-27T03:49:37.887Z,100395.00
2019-04-27T03:52:11.410Z,100398.00
2019-04-27T03:54:50.370Z,100398.00
2019-04-27T03:57:32.726Z,100403.00
2019-04-27T04:00:10.132Z,100392.00
2019-04-27T04:02:40.835Z,100393.00
2019-04-27T04:05:11.223Z,100389.00
2019-04-27T04:07:41.691Z,100390.00
2019-04-27T04:10:12.471Z,100394.00
2019-04-27T04:13:00.949Z,100383.00
2019-04-27T04:15:40.071Z,100394.00
2019-04-27T04:18:10.383Z,100390.00
2019-04-27T04:20:40.991Z,100390.00
2019-04-27T04:23:11.604Z,100396.00
2019-04-27T04:25:42.267Z,100392.00
2019-04-27T04:28:13.006Z,100387.00
2019-04-27T04:30:43.346Z,100388.00
2019-04-27T04:33:13.686Z,100387.00
2019-04-27T04:35:44.033Z,100379.00
2019-04-27T04:38:14.755Z,100379.00
2019-04-27T04:40:51.353Z,100380.00
2019-04-27T04:43:29.451Z,100376.00
2019-04-27T04:46:19.621Z,100369.00
2019-04-27T04:48:51.480Z,100376.00
2019-04-27T04:51:22.143Z,100378.00
2019-04-27T04:53:52.724Z,100366.00
2019-04-27T04:56:23.089Z,100368.00
2019-04-27T04:58:53.470Z,100369.00
2019-04-27T05:01:23.872Z,100369.00
2019-04-27T05:03:54.234Z,100357.00
2019-04-27T05:06:25.574Z,100364.00
2019-04-27T05:08:56.634Z,100367.00
2019-04-27T05:11:29.795Z,100367.00
2019-04-27T05:14:01.568Z,100364.00
2019-04-27T05:16:32.899Z,100365.00
2019-04-27T05:19:03.397Z,100366.00
2019-04-27T05:21:34.988Z,100369.00
2019-04-27T05:24:05.839Z,100363.00
2019-04-27T05:26:36.239Z,100356.00
2019-04-27T05:29:06.619Z,100361.00
2019-04-27T05:31:38.669Z,100356.00
2019-04-27T05:34:09.633Z,100343.00
2019-04-27T05:36:41.654Z,100354.00
2019-04-27T05:39:13.318Z,100351.00
2019-04-27T05:41:43.719Z,100345.00
2019-04-27T05:44:31.634Z,100352.00
2019-04-27T05:47:16.723Z,100344.00
2019-04-27T05:50:09.149Z,100347.00
2019-04-27T05:52:40.990Z,100337.00
2019-04-27T05:55:11.564Z,100323.00
2019-04-27T05:57:41.913Z,100338.00
2019-04-27T06:00:15.260Z,100325.00
2019-04-27T06:02:46.041Z,100332.00
2019-04-27T06:05:16.453Z,100334.00
2019-04-27T06:07:48.767Z,100322.00
2019-04-27T06:10:19.828Z,100324.00
2019-04-27T06:12:50.907Z,100320.00
2019-04-27T06:15:21.574Z,100308.00
2019-04-27T06:17:52.287Z,100320.00
2019-04-27T06:20:22.610Z,100303.00
2019-04-27T06:22:53.255Z,100306.00
2019-04-27T06:25:23.877Z,100315.00
2019-04-27T06:27:59.160Z,100307.00
2019-04-27T06:30:30.058Z,100314.00
2019-04-27T06:33:00.834Z,100313.00
2019-04-27T06:35:31.253Z,100314.00
2019-04-27T06:38:01.975Z,100313.00
2019-04-27T06:40:35.290Z,100309.00
2019-04-27T06:43:04.529Z,100304.00
2019-04-27T06:45:35.336Z,100307.00
2019-04-27T06:48:06.611Z,100310.00
2019-04-27T06:50:38.857Z,100312.00
2019-04-27T06:53:09.218Z,100309.00
2019-04-27T06:55:39.661Z,100305.00
2019-04-27T06:58:10.008Z,100305.00
2019-04-27T07:00:40.412Z,100303.00
2019-04-27T07:03:11.074Z,100303.00
2019-04-27T07:05:41.905Z,100302.00
2019-04-27T07:08:12.263Z,100305.00
2019-04-27T07:10:42.648Z,100298.00
2019-04-27T07:13:13.005Z,100297.00
2019-04-27T07:15:43.401Z,100300.00
2019-04-27T07:18:14.105Z,100295.00
2019-04-27T07:20:44.537Z,100304.00
2019-04-27T07:23:14.961Z,100301.00
2019-04-27T07:25:45.618Z,100300.00
2019-04-27T07:28:16.018Z,100293.00
2019-04-27T07:30:48.683Z,100296.00
2019-04-27T07:33:19.292Z,100289.00
2019-04-27T07:35:50.478Z,100289.00
2019-04-27T07:38:21.190Z,100283.00
2019-04-27T07:40:51.595Z,100282.00
2019-04-27T07:43:39.619Z,100286.00
2019-04-27T07:46:10.255Z,100285.00
2019-04-27T07:48:40.620Z,100288.00
2019-04-27T07:51:10.936Z,100287.00
2019-04-27T07:53:41.313Z,100271.00
2019-04-27T07:56:12.063Z,100287.00
2019-04-27T07:58:42.488Z,100285.00
2019-04-27T08:01:13.360Z,100275.00
2019-04-27T08:03:43.778Z,100276.00
2019-04-27T08:06:14.565Z,100267.00
2019-04-27T08:08:45.058Z,100262.00
2019-04-27T08:11:15.795Z,100276.00
2019-04-27T08:13:46.741Z,100272.00
2019-04-27T08:16:18.309Z,100270.00
2019-04-27T08:18:52.587Z,100270.00
2019-04-27T08:21:23.221Z,100276.00
2019-04-27T08:23:53.882Z,100269.00
2019-04-27T08:26:50.023Z,100276.00
2019-04-27T08:29:42.223Z,100275.00
2019-04-27T08:32:15.836Z,100272.00
2019-04-27T08:34:46.227Z,100281.00
2019-04-27T08:37:18.685Z,100278.00
2019-04-27T08:39:50.825Z,100283.00
2019-04-27T08:42:21.145Z,100275.00
2019-04-27T08:44:51.819Z,100278.00
2019-04-27T08:47:22.198Z,100277.00
2019-04-27T08:49:52.728Z,100272.00
2019-04-27T08:52:23.122Z,100274.00
2019-04-27T08:54:53.793Z,100273.00
2019-04-27T08:57:24.159Z,100281.00
2019-04-27T08:59:54.582Z,100285.00
2019-04-27T09:02:24.966Z,100287.00
2019-04-27T09:04:55.336Z,100278.00
2019-04-27T09:07:43.501Z,100281.00
2019-04-27T09:10:36.309Z,100284.00
2019-04-27T09:13:16.509Z,100279.00
2019-04-27T09:15:57.560Z,100281.00
2019-04-27T09:18:32.402Z,100273.00
2019-04-27T09:21:03.482Z,100273.00
2019-04-27T09:23:34.490Z,100282.00
2019-04-27T09:26:04.912Z,100271.00
2019-04-27T09:28:35.267Z,100278.00
2019-04-27T09:31:10.600Z,100287.00
2019-04-27T09:33:41.315Z,100277.00
2019-04-27T09:36:11.648Z,100288.00
2019-04-27T09:38:42.067Z,100281.00
2019-04-27T09:41:12.428Z,100280.00
2019-04-27T09:43:42.798Z,100281.00
2019-04-27T09:46:13.154Z,100268.00
2019-04-27T09:48:43.524Z,100269.00
2019-04-27T09:51:13.982Z,100267.00
2019-04-27T09:53:45.863Z,100261.00
2019-04-27T09:56:16.534Z,100264.00
2019-04-27T09:58:47.892Z,100264.00
2019-04-27T10:01:18.838Z,100256.00
2019-04-27T10:03:59.085Z,100260.00
2019-04-27T10:06:30.152Z,100253.00
2019-04-27T10:09:00.526Z,100255.00
2019-04-27T10:11:30.848Z,100259.00
2019-04-27T10:14:01.529Z,100266.00
2019-04-27T10:16:32.060Z,100253.00
2019-04-27T10:19:02.559Z,100254.00
2019-04-27T10:21:32.992Z,100251.00
2019-04-27T10:24:03.370Z,100263.00
2019-04-27T10:26:34.180Z,100252.00
2019-04-27T10:29:06.171Z,100253.00
2019-04-27T10:31:36.577Z,100246.00
2019-04-27T10:34:07.031Z,100249.00
2019-04-27T10:36:41.423Z,100246.00
2019-04-27T10:39:13.857Z,100247.00
2019-04-27T10:41:46.154Z,100232.00
2019-04-27T10:44:16.473Z,100239.00
2019-04-27T10:46:46.976Z,100236.00
2019-04-27T10:49:17.370Z,100238.00
2019-04-27T10:51:48.232Z,100244.00
2019-04-27T10:54:18.637Z,100234.00
2019-04-27T10:56:48.994Z,100239.00
2019-04-27T10:59:19.406Z,100235.00
2019-04-27T11:01:49.788Z,100231.00
2019-04-27T11:04:42.369Z,100235.00
2019-04-27T11:07:15.845Z,100229.00
2019-04-27T11:09:46.310Z,100230.00
2019-04-27T11:12:16.722Z,100233.00
2019-04-27T11:14:47.379Z,100229.00
2019-04-27T11:17:17.765Z,100230.00
2019-04-27T11:19:48.174Z,100215.00
2019-04-27T11:22:19.242Z,100223.00
2019-04-27T11:24:58.627Z,100220.00
2019-04-27T11:27:29.003Z,100224.00
2019-04-27T11:29:59.395Z,100222.00
2019-04-27T11:32:30.293Z,100215.00
2019-04-27T11:35:11.634Z,100210.00
2019-04-27T11:37:42.316Z,100210.00
2019-04-27T11:40:14.702Z,100203.00
2019-04-27T11:42:45.047Z,100196.00
2019-04-27T11:45:17.531Z,100206.00
2019-04-27T11:47:47.897Z,100206.00
2019-04-27T11:50:19.635Z,100207.00
2019-04-27T11:52:50.091Z,100205.00
2019-04-27T11:55:21.047Z,100207.00
2019-04-27T11:57:51.430Z,100206.00
2019-04-27T12:00:23.789Z,100207.00
2019-04-27T12:02:54.153Z,100206.00
2019-04-27T12:05:26.108Z,100205.00
2019-04-27T12:07:56.849Z,100193.00
2019-04-27T12:10:27.226Z,100205.00
2019-04-27T12:12:57.927Z,100199.00
2019-04-27T12:15:28.623Z,100253.00
2019-04-27T12:17:59.076Z,100257.00
2019-04-27T12:20:29.831Z,100267.00
2019-04-27T12:23:00.199Z,100261.00
2019-04-27T12:25:30.860Z,100274.00
2019-04-27T12:28:07.726Z,100277.00
2019-04-27T12:30:42.310Z,100295.00
2019-04-27T12:33:12.740Z,100288.00
2019-04-27T12:35:43.124Z,100288.00
2019-04-27T12:38:13.438Z,100299.00
2019-04-27T12:40:43.833Z,100298.00
2019-04-27T12:43:14.194Z,100293.00
2019-04-27T12:45:45.930Z,100294.00
2019-04-27T12:48:16.537Z,100290.00
2019-04-27T12:50:47.610Z,100294.00
2019-04-27T12:53:27.779Z,100303.00
2019-04-27T12:56:16.750Z,100299.00
2019-04-27T12:59:05.151Z,100303.00
2019-04-27T13:01:36.151Z,100299.00
2019-04-27T13:04:06.701Z,100294.00
2019-04-27T13:06:37.024Z,100293.00
2019-04-27T13:09:09.126Z,100289.00
2019-04-27T13:11:39.432Z,100290.00
2019-04-27T13:14:09.907Z,100290.00
2019-04-27T13:16:40.295Z,100284.00
2019-04-27T13:19:10.730Z,100279.00
2019-04-27T13:21:41.255Z,100266.00
2019-04-27T13:24:11.779Z,100265.00
2019-04-27T13:26:43.120Z,100268.00
2019-04-27T13:29:13.433Z,100262.00
2019-04-27T13:31:44.214Z,100269.00
2019-04-27T13:34:15.898Z,100261.00
2019-04-27T13:36:46.656Z,100256.00
2019-04-27T13:39:17.013Z,100258.00
2019-04-27T13:41:47.384Z,100250.00
2019-04-27T13:44:17.746Z,100257.00
2019-04-27T13:47:06.281Z,100259.00
2019-04-27T13:49:47.555Z,100247.00
2019-04-27T13:52:23.600Z,100248.00
2019-04-27T13:54:55.647Z,100240.00
2019-04-27T13:57:26.712Z,100238.00
2019-04-27T13:59:57.042Z,100246.00
2019-04-27T14:02:32.232Z,100254.00
2019-04-27T14:04:59.478Z,100257.00
2019-04-27T14:07:30.960Z,100261.00
2019-04-27T14:10:01.620Z,100271.00
2019-04-27T14:12:32.712Z,100273.00
2019-04-27T14:15:03.150Z,100266.00
2019-04-27T14:17:34.175Z,100257.00
2019-04-27T14:20:04.709Z,100250.00
2019-04-27T14:22:35.066Z,100234.00
2019-04-27T14:25:05.750Z,100245.00
2019-04-27T14:27:40.843Z,100251.00
2019-04-27T14:30:14.481Z,100252.00
2019-04-27T14:32:44.833Z,100244.00
2019-04-27T14:35:15.721Z,100255.00
2019-04-27T14:37:48.411Z,100258.00
2019-04-27T14:40:18.636Z,100273.00
2019-04-27T14:42:50.519Z,100274.00
2019-04-27T14:45:21.598Z,100278.00
2019-04-27T14:47:52.204Z,100284.00
2019-04-27T14:50:22.560Z,100287.00
2019-04-27T14:52:52.986Z,100288.00
2019-04-27T14:55:23.362Z,100293.00
2019-04-27T14:57:54.093Z,100288.00
2019-04-27T15:00:24.531Z,100296.00
2019-04-27T15:02:55.201Z,100290.00
2019-04-27T15:05:25.571Z,100291.00
2019-04-27T15:07:56.315Z,100286.00
2019-04-27T15:10:32.834Z,100288.00
2019-04-27T15:13:01.595Z,100285.00
2019-04-27T15:15:32.532Z,100289.00
2019-04-27T15:18:05.475Z,100281.00
2019-04-27T15:20:41.725Z,100288.00
2019-04-27T15:23:13.225Z,100283.00
2019-04-27T15:25:47.011Z,100284.00
2019-04-27T15:28:18.397Z,100277.00
2019-04-27T15:31:22.402Z,100271.00
2019-04-27T15:34:00.627Z,100265.00
2019-04-27T15:36:42.060Z,100266.00
2019-04-27T15:39:22.500Z,100262.00
2019-04-27T15:41:55.233Z,100268.00
2019-04-27T15:44:25.571Z,100279.00
2019-04-27T15:46:57.905Z,100285.00
2019-04-27T15:49:28.180Z,100279.00
2019-04-27T15:52:00.178Z,100297.00
2019-04-27T15:54:32.300Z,100297.00
2019-04-27T15:57:05.729Z,100295.00
2019-04-27T15:59:39.291Z,100298.00
2019-04-27T16:02:12.265Z,100300.00
2019-04-27T16:04:39.910Z,100298.00
2019-04-27T16:07:11.765Z,100301.00
2019-04-27T16:09:42.519Z,100297.00
2019-04-27T16:12:13.682Z,100298.00
2019-04-27T16:14:44.356Z,100287.00
2019-04-27T16:17:15.122Z,100293.00
2019-04-27T16:19:47.359Z,100292.00
2019-04-27T16:22:18.439Z,100294.00
2019-04-27T16:24:49.511Z,100295.00
2019-04-27T16:27:21.374Z,100288.00
2019-04-27T16:29:52.140Z,100291.00
2019-04-27T16:32:22.593Z,100297.00
2019-04-27T16:34:53.194Z,100305.00
2019-04-27T16:37:41.938Z,100303.00
2019-04-27T16:40:12.294Z,100312.00
2019-04-27T16:42:45.369Z,100337.00
2019-04-27T16:45:15.573Z,100340.00
2019-04-27T16:47:45.947Z,100353.00
2019-04-27T16:50:19.761Z,100356.00
2019-04-27T16:52:56.559Z,100362.00
2019-04-27T16:55:21.026Z,100362.00
2019-04-27T16:57:51.450Z,100357.00
2019-04-27T17:00:26.459Z,100361.00
2019-04-27T17:02:59.361Z,100360.00
2019-04-27T17:05:30.854Z,100360.00
2019-04-27T17:07:59.664Z,100357.00
2019-04-27T17:10:30.477Z,100355.00
2019-04-27T17:13:00.978Z,100367.00
2019-04-27T17:15:46.881Z,100374.00
2019-04-27T17:18:39.909Z,100374.00
2019-04-27T17:21:18.950Z,100383.00
2019-04-27T17:23:42.704Z,100382.00
2019-04-27T17:26:21.063Z,100390.00
2019-04-27T17:28:54.882Z,100393.00
2019-04-27T17:31:26.708Z,100394.00
2019-04-27T17:34:00.656Z,100389.00
2019-04-27T17:36:31.016Z,100396.00
2019-04-27T17:39:01.436Z,100402.00
2019-04-27T17:41:31.859Z,100409.00
2019-04-27T17:44:02.221Z,100406.00
2019-04-27T17:46:32.662Z,100406.00
2019-04-27T17:49:03.124Z,100408.00
2019-04-27T17:51:35.161Z,100413.00
2019-04-27T17:54:08.090Z,100408.00
2019-04-27T17:56:48.353Z,100416.00
2019-04-27T17:59:16.751Z,100413.00
2019-04-27T18:01:42.508Z,100412.00
2019-04-27T18:04:12.919Z,100406.00
2019-04-27T18:06:43.315Z,100407.00
2019-04-27T18:09:18.790Z,100409.00
2019-04-27T18:11:50.373Z,100409.00
2019-04-27T18:14:20.958Z,100415.00
2019-04-27T18:16:51.307Z,100416.00
2019-04-27T18:19:45.697Z,100428.00
2019-04-27T18:22:17.891Z,100425.00
2019-04-27T18:25:03.294Z,100423.00
2019-04-27T18:27:44.774Z,100433.00
2019-04-27T18:30:25.447Z,100441.00
2019-04-27T18:32:59.173Z,100436.00
2019-04-27T18:35:29.687Z,100436.00
2019-04-27T18:38:01.913Z,100434.00
2019-04-27T18:40:33.580Z,100439.00
2019-04-27T18:43:06.645Z,100437.00
2019-04-27T18:45:39.704Z,100436.00
2019-04-27T18:48:14.862Z,100442.00
2019-04-27T18:50:55.987Z,100448.00
2019-04-27T18:53:28.913Z,100457.00
2019-04-27T18:56:05.165Z,100446.00
2019-04-27T18:58:31.647Z,100451.00
2019-04-27T19:01:02.136Z,100444.00
2019-04-27T19:03:32.887Z,100458.00
2019-04-27T19:06:03.273Z,100466.00
2019-04-27T19:08:34.435Z,100473.00
2019-04-27T19:11:05.224Z,100468.00
2019-04-27T19:13:35.584Z,100483.00
2019-04-27T19:16:06.010Z,100489.00
2019-04-27T19:18:37.815Z,100492.00
2019-04-27T19:21:08.891Z,100491.00
2019-04-27T19:23:40.251Z,100497.00
2019-04-27T19:26:25.872Z,100499.00
2019-04-27T19:29:13.536Z,100501.00
2019-04-27T19:31:50.065Z,100515.00
2019-04-27T19:34:20.594Z,100516.00
2019-04-27T19:36:51.235Z,100512.00
2019-04-27T19:39:21.631Z,100514.00
2019-04-27T19:42:00.236Z,100524.00
2019-04-27T19:44:24.592Z,100519.00
2019-04-27T19:46:56.991Z,100522.00
2019-04-27T19:49:29.397Z,100525.00
2019-04-27T19:51:59.723Z,100527.00
2019-04-27T19:54:30.364Z,100543.00
2019-04-27T19:57:00.821Z,100545.00
2019-04-27T19:59:38.066Z,100537.00
2019-04-27T20:02:12.928Z,100535.00
2019-04-27T20:04:46.421Z,100544.00
2019-04-27T20:07:18.197Z,100544.00
2019-04-27T20:10:00.303Z,100539.00
2019-04-27T20:12:31.460Z,100541.00
2019-04-27T20:15:02.389Z,100550.00
2019-04-27T20:17:33.488Z,100553.00
2019-04-27T20:20:04.932Z,100550.00
2019-04-27T20:22:35.310Z,100551.00
2019-04-27T20:25:06.268Z,100560.00
2019-04-27T20:27:46.149Z,100559.00
2019-04-27T20:30:12.052Z,100551.00
2019-04-27T20:32:42.443Z,100556.00
2019-04-27T20:35:13.169Z,100551.00
2019-04-27T20:37:43.823Z,100550.00
2019-04-27T20:40:14.666Z,100554.00
2019-04-27T20:42:45.110Z,100560.00
2019-04-27T20:45:15.494Z,100559.00
2019-04-27T20:47:45.855Z,100557.00
2019-04-27T20:50:16.573Z,100559.00
2019-04-27T20:52:55.129Z,100562.00
2019-04-27T20:55:25.803Z,100566.00
2019-04-27T20:58:01.627Z,100566.00
2019-04-27T21:00:28.533Z,100571.00
2019-04-27T21:03:20.984Z,100573.00
2019-04-27T21:06:11.142Z,100566.00
2019-04-27T21:08:42.298Z,100562.00
2019-04-27T21:11:13.064Z,100567.00
2019-04-27T21:13:43.431Z,100575.00
2019-04-27T21:16:14.177Z,100577.00
2019-04-27T21:18:44.578Z,100575.00
2019-04-27T21:21:15.654Z,100583.00
2019-04-27T21:23:46.022Z,100574.00
2019-04-27T21:26:16.679Z,100572.00
2019-04-27T21:28:47.051Z,100575.00
2019-04-27T21:31:17.439Z,100583.00
2019-04-27T21:33:47.814Z,100587.00
2019-04-27T21:36:18.713Z,100596.00
2019-04-27T21:38:51.178Z,100580.00
2019-04-27T21:41:22.707Z,100594.00
2019-04-27T21:43:53.228Z,100583.00
2019-04-27T21:46:23.864Z,100591.00
2019-04-27T21:48:54.248Z,100587.00
2019-04-27T21:51:24.845Z,100597.00
2019-04-27T21:54:26.163Z,100603.00
2019-04-27T21:56:56.643Z,100600.00
2019-04-27T21:59:26.992Z,100598.00
2019-04-27T22:01:59.652Z,100605.00
2019-04-27T22:04:31.519Z,100607.00
2019-04-27T22:07:02.050Z,100602.00
2019-04-27T22:09:32.773Z,100604.00
2019-04-27T22:12:03.140Z,100609.00
2019-04-27T22:14:34.271Z,100613.00
2019-04-27T22:17:04.674Z,100618.00
2019-04-27T22:19:35.100Z,100622.00
2019-04-27T22:22:08.350Z,100623.00
2019-04-27T22:24:42.755Z,100630.00
2019-04-27T22:27:12.165Z,100621.00
2019-04-27T22:29:43.066Z,100626.00
2019-04-27T22:32:13.430Z,100636.00
2019-04-27T22:34:44.195Z,100651.00
2019-04-27T22:37:14.571Z,100643.00
2019-04-27T22:39:52.778Z,100646.00
2019-04-27T22:42:53.547Z,100655.00
2019-04-27T22:45:27.547Z,100658.00
2019-04-27T22:47:58.041Z,100654.00
2019-04-27T22:50:28.477Z,100652.00
2019-04-27T22:52:58.932Z,100659.00
2019-04-27T22:55:31.043Z,100663.00
2019-04-27T22:58:08.956Z,100656.00
2019-04-27T23:01:07.620Z,100662.00
2019-04-27T23:03:38.617Z,100661.00
2019-04-27T23:06:08.915Z,100664.00
2019-04-27T23:08:41.108Z,100665.00
2019-04-27T23:11:12.163Z,100655.00
2019-04-27T23:13:43.002Z,100647.00
2019-04-27T23:16:15.117Z,100648.00
2019-04-27T23:18:45.856Z,100654.00
2019-04-27T23:21:16.356Z,100653.00
2019-04-27T23:23:46.742Z,100648.00
2019-04-27T23:26:17.134Z,100649.00
2019-04-27T23:28:47.549Z,100646.00
2019-04-27T23:31:40.807Z,100646.00
2019-04-27T23:34:11.789Z,100643.00
2019-04-27T23:36:44.153Z,100652.00
2019-04-27T23:39:14.425Z,100644.00
2019-04-27T23:41:44.824Z,100645.00
2019-04-27T23:44:15.180Z,100659.00
2019-04-27T23:46:45.546Z,100645.00
2019-04-27T23:49:16.179Z,100645.00
2019-04-27T23:52:00.686Z,100650.00
2019-04-27T23:54:31.115Z,100657.00
2019-04-27T23:57:01.912Z,100652.00
2019-04-27T23:59:33.357Z,100660.00
